sensor_id;sensor_type;location;lat;lon;timestamp;P1;durP1;ratioP1;P2;durP2;ratioP2
13335;SDS011;6737;51.480;11.962;2022-11-04T00:01:51;7.60;;;4.00;;
13335;SDS011;6737;51.480;11.962;2022-11-04T00:04:18;6.93;;;3.73;;
13335;SDS011;6737;51.480;11.962;2022-11-04T00:06:45;6.93;;;3.77;;
13335;SDS011;6737;51.480;11.962;2022-11-04T00:09:12;6.90;;;4.10;;
13335;SDS011;6737;51.480;11.962;2022-11-04T00:11:47;6.93;;;3.53;;
13335;SDS011;6737;51.480;11.962;2022-11-04T00:14:32;6.73;;;4.10;;
13335;SDS011;6737;51.480;11.962;2022-11-04T00:16:58;7.70;;;4.00;;
13335;SDS011;6737;51.480;11.962;2022-11-04T00:19:44;6.60;;;3.80;;
13335;SDS011;6737;51.480;11.962;2022-11-04T00:22:31;7.67;;;4.20;;
13335;SDS011;6737;51.480;11.962;2022-11-04T00:25:15;7.37;;;4.40;;
13335;SDS011;6737;51.480;11.962;2022-11-04T00:28:03;8.37;;;4.20;;
13335;SDS011;6737;51.480;11.962;2022-11-04T00:30:52;8.17;;;4.10;;
13335;SDS011;6737;51.480;11.962;2022-11-04T00:33:19;7.37;;;4.17;;
13335;SDS011;6737;51.480;11.962;2022-11-04T00:35:52;6.93;;;3.90;;
13335;SDS011;6737;51.480;11.962;2022-11-04T00:38:19;5.67;;;4.27;;
13335;SDS011;6737;51.480;11.962;2022-11-04T00:40:45;9.50;;;4.43;;
13335;SDS011;6737;51.480;11.962;2022-11-04T00:43:10;10.27;;;4.10;;
13335;SDS011;6737;51.480;11.962;2022-11-04T00:45:36;7.43;;;4.20;;
13335;SDS011;6737;51.480;11.962;2022-11-04T00:48:04;7.77;;;4.13;;
13335;SDS011;6737;51.480;11.962;2022-11-04T00:50:30;8.23;;;4.50;;
13335;SDS011;6737;51.480;11.962;2022-11-04T00:52:58;10.13;;;4.40;;
13335;SDS011;6737;51.480;11.962;2022-11-04T00:55:25;8.67;;;4.60;;
13335;SDS011;6737;51.480;11.962;2022-11-04T00:57:51;7.23;;;4.43;;
13335;SDS011;6737;51.480;11.962;2022-11-04T01:00:17;8.40;;;4.57;;
13335;SDS011;6737;51.480;11.962;2022-11-04T01:02:44;8.20;;;4.47;;
13335;SDS011;6737;51.480;11.962;2022-11-04T01:05:10;6.53;;;4.43;;
13335;SDS011;6737;51.480;11.962;2022-11-04T01:07:36;9.27;;;4.93;;
13335;SDS011;6737;51.480;11.962;2022-11-04T01:10:03;6.93;;;4.47;;
13335;SDS011;6737;51.480;11.962;2022-11-04T01:12:29;7.50;;;4.17;;
13335;SDS011;6737;51.480;11.962;2022-11-04T01:14:55;8.30;;;4.50;;
13335;SDS011;6737;51.480;11.962;2022-11-04T01:17:21;7.23;;;4.40;;
13335;SDS011;6737;51.480;11.962;2022-11-04T01:19:47;7.60;;;4.43;;
13335;SDS011;6737;51.480;11.962;2022-11-04T01:22:13;8.37;;;4.40;;
13335;SDS011;6737;51.480;11.962;2022-11-04T01:24:39;9.33;;;4.10;;
13335;SDS011;6737;51.480;11.962;2022-11-04T01:27:04;5.13;;;3.83;;
13335;SDS011;6737;51.480;11.962;2022-11-04T01:29:30;6.57;;;4.23;;
13335;SDS011;6737;51.480;11.962;2022-11-04T01:31:56;7.33;;;4.10;;
13335;SDS011;6737;51.480;11.962;2022-11-04T01:34:21;7.13;;;4.03;;
13335;SDS011;6737;51.480;11.962;2022-11-04T01:36:47;6.47;;;4.30;;
13335;SDS011;6737;51.480;11.962;2022-11-04T01:39:13;8.10;;;4.23;;
13335;SDS011;6737;51.480;11.962;2022-11-04T01:41:39;5.77;;;3.57;;
13335;SDS011;6737;51.480;11.962;2022-11-04T01:46:51;7.50;;;4.40;;
13335;SDS011;6737;51.480;11.962;2022-11-04T01:49:25;8.23;;;4.40;;
13335;SDS011;6737;51.480;11.962;2022-11-04T01:51:53;8.17;;;4.00;;
13335;SDS011;6737;51.480;11.962;2022-11-04T01:54:25;7.40;;;4.17;;
13335;SDS011;6737;51.480;11.962;2022-11-04T01:56:52;6.83;;;4.40;;
13335;SDS011;6737;51.480;11.962;2022-11-04T01:59:20;8.73;;;4.13;;
13335;SDS011;6737;51.480;11.962;2022-11-04T02:01:52;8.53;;;4.50;;
13335;SDS011;6737;51.480;11.962;2022-11-04T02:04:18;9.67;;;4.20;;
13335;SDS011;6737;51.480;11.962;2022-11-04T02:06:52;5.70;;;3.57;;
13335;SDS011;6737;51.480;11.962;2022-11-04T02:09:21;9.20;;;4.10;;
13335;SDS011;6737;51.480;11.962;2022-11-04T02:11:49;5.80;;;4.20;;
13335;SDS011;6737;51.480;11.962;2022-11-04T02:14:34;8.13;;;4.60;;
13335;SDS011;6737;51.480;11.962;2022-11-04T02:17:04;10.20;;;4.07;;
13335;SDS011;6737;51.480;11.962;2022-11-04T02:19:51;8.07;;;3.93;;
13335;SDS011;6737;51.480;11.962;2022-11-04T02:28:42;6.73;;;3.60;;
13335;SDS011;6737;51.480;11.962;2022-11-04T02:34:33;6.57;;;4.03;;
13335;SDS011;6737;51.480;11.962;2022-11-04T02:45:37;7.70;;;4.20;;
13335;SDS011;6737;51.480;11.962;2022-11-04T02:48:06;7.00;;;3.70;;
13335;SDS011;6737;51.480;11.962;2022-11-04T02:50:42;7.47;;;4.10;;
13335;SDS011;6737;51.480;11.962;2022-11-04T02:53:19;10.07;;;4.40;;
13335;SDS011;6737;51.480;11.962;2022-11-04T02:56:00;7.50;;;4.20;;
13335;SDS011;6737;51.480;11.962;2022-11-04T02:58:36;7.00;;;4.10;;
13335;SDS011;6737;51.480;11.962;2022-11-04T03:01:07;9.47;;;4.37;;
13335;SDS011;6737;51.480;11.962;2022-11-04T03:03:40;7.27;;;4.23;;
13335;SDS011;6737;51.480;11.962;2022-11-04T03:06:09;5.83;;;4.20;;
13335;SDS011;6737;51.480;11.962;2022-11-04T03:08:40;8.37;;;4.30;;
13335;SDS011;6737;51.480;11.962;2022-11-04T03:11:11;6.57;;;3.93;;
13335;SDS011;6737;51.480;11.962;2022-11-04T03:13:47;5.73;;;3.90;;
13335;SDS011;6737;51.480;11.962;2022-11-04T03:16:27;9.70;;;4.33;;
13335;SDS011;6737;51.480;11.962;2022-11-04T03:21:42;6.93;;;4.43;;
13335;SDS011;6737;51.480;11.962;2022-11-04T03:24:31;8.60;;;4.53;;
13335;SDS011;6737;51.480;11.962;2022-11-04T03:26:58;8.50;;;4.57;;
13335;SDS011;6737;51.480;11.962;2022-11-04T03:29:31;7.10;;;4.50;;
13335;SDS011;6737;51.480;11.962;2022-11-04T03:32:12;8.97;;;4.03;;
13335;SDS011;6737;51.480;11.962;2022-11-04T03:34:53;7.03;;;4.07;;
13335;SDS011;6737;51.480;11.962;2022-11-04T03:37:20;7.43;;;4.27;;
13335;SDS011;6737;51.480;11.962;2022-11-04T03:39:45;7.40;;;4.30;;
13335;SDS011;6737;51.480;11.962;2022-11-04T03:42:11;6.87;;;4.37;;
13335;SDS011;6737;51.480;11.962;2022-11-04T03:44:48;6.93;;;4.23;;
13335;SDS011;6737;51.480;11.962;2022-11-04T03:47:15;7.07;;;4.10;;
13335;SDS011;6737;51.480;11.962;2022-11-04T03:49:44;9.07;;;4.17;;
13335;SDS011;6737;51.480;11.962;2022-11-04T03:52:12;7.07;;;4.47;;
13335;SDS011;6737;51.480;11.962;2022-11-04T03:54:39;6.17;;;3.93;;
13335;SDS011;6737;51.480;11.962;2022-11-04T04:05:28;7.20;;;4.67;;
13335;SDS011;6737;51.480;11.962;2022-11-04T04:14:04;8.03;;;4.57;;
13335;SDS011;6737;51.480;11.962;2022-11-04T04:16:41;7.97;;;4.30;;
13335;SDS011;6737;51.480;11.962;2022-11-04T04:19:17;7.73;;;4.47;;
13335;SDS011;6737;51.480;11.962;2022-11-04T04:21:53;7.60;;;4.33;;
13335;SDS011;6737;51.480;11.962;2022-11-04T04:24:25;6.70;;;4.30;;
13335;SDS011;6737;51.480;11.962;2022-11-04T04:27:15;5.93;;;4.20;;
13335;SDS011;6737;51.480;11.962;2022-11-04T04:29:58;9.00;;;4.43;;
13335;SDS011;6737;51.480;11.962;2022-11-04T04:32:37;8.67;;;4.67;;
13335;SDS011;6737;51.480;11.962;2022-11-04T04:35:06;5.63;;;4.03;;
13335;SDS011;6737;51.480;11.962;2022-11-04T04:37:53;6.30;;;4.20;;
13335;SDS011;6737;51.480;11.962;2022-11-04T04:40:41;6.23;;;4.40;;
13335;SDS011;6737;51.480;11.962;2022-11-04T04:43:40;7.57;;;4.23;;
13335;SDS011;6737;51.480;11.962;2022-11-04T04:46:26;6.60;;;4.80;;
13335;SDS011;6737;51.480;11.962;2022-11-04T04:48:53;8.57;;;5.40;;
13335;SDS011;6737;51.480;11.962;2022-11-04T04:51:19;7.50;;;5.23;;
13335;SDS011;6737;51.480;11.962;2022-11-04T04:53:46;10.73;;;5.10;;
13335;SDS011;6737;51.480;11.962;2022-11-04T04:56:12;8.77;;;4.90;;
13335;SDS011;6737;51.480;11.962;2022-11-04T04:58:38;9.37;;;5.60;;
13335;SDS011;6737;51.480;11.962;2022-11-04T05:01:03;8.90;;;5.07;;
13335;SDS011;6737;51.480;11.962;2022-11-04T05:03:29;6.47;;;4.70;;
13335;SDS011;6737;51.480;11.962;2022-11-04T05:05:57;7.27;;;4.80;;
13335;SDS011;6737;51.480;11.962;2022-11-04T05:08:24;8.60;;;4.93;;
13335;SDS011;6737;51.480;11.962;2022-11-04T05:10:49;7.27;;;4.43;;
13335;SDS011;6737;51.480;11.962;2022-11-04T05:13:15;9.43;;;5.13;;
13335;SDS011;6737;51.480;11.962;2022-11-04T05:15:50;8.43;;;5.37;;
13335;SDS011;6737;51.480;11.962;2022-11-04T05:18:17;6.77;;;5.17;;
13335;SDS011;6737;51.480;11.962;2022-11-04T05:20:44;7.90;;;5.13;;
13335;SDS011;6737;51.480;11.962;2022-11-04T05:23:09;6.73;;;4.63;;
13335;SDS011;6737;51.480;11.962;2022-11-04T05:25:39;9.13;;;5.13;;
13335;SDS011;6737;51.480;11.962;2022-11-04T05:28:07;9.23;;;5.07;;
13335;SDS011;6737;51.480;11.962;2022-11-04T05:30:33;8.77;;;4.70;;
13335;SDS011;6737;51.480;11.962;2022-11-04T05:32:59;7.00;;;4.90;;
13335;SDS011;6737;51.480;11.962;2022-11-04T05:35:24;6.93;;;4.80;;
13335;SDS011;6737;51.480;11.962;2022-11-04T05:37:50;6.37;;;4.87;;
13335;SDS011;6737;51.480;11.962;2022-11-04T05:40:16;8.67;;;5.30;;
13335;SDS011;6737;51.480;11.962;2022-11-04T05:42:42;8.83;;;4.90;;
13335;SDS011;6737;51.480;11.962;2022-11-04T05:45:08;8.40;;;5.20;;
13335;SDS011;6737;51.480;11.962;2022-11-04T05:47:34;9.47;;;4.83;;
13335;SDS011;6737;51.480;11.962;2022-11-04T05:50:00;8.43;;;4.80;;
13335;SDS011;6737;51.480;11.962;2022-11-04T05:52:25;6.20;;;4.47;;
13335;SDS011;6737;51.480;11.962;2022-11-04T05:54:51;7.60;;;4.73;;
13335;SDS011;6737;51.480;11.962;2022-11-04T05:57:17;7.20;;;5.33;;
13335;SDS011;6737;51.480;11.962;2022-11-04T05:59:43;8.30;;;5.13;;
13335;SDS011;6737;51.480;11.962;2022-11-04T06:02:08;7.67;;;4.77;;
13335;SDS011;6737;51.480;11.962;2022-11-04T06:04:34;7.33;;;5.03;;
13335;SDS011;6737;51.480;11.962;2022-11-04T06:07:00;6.20;;;4.63;;
13335;SDS011;6737;51.480;11.962;2022-11-04T06:09:26;8.13;;;5.17;;
13335;SDS011;6737;51.480;11.962;2022-11-04T06:12:05;8.87;;;4.80;;
13335;SDS011;6737;51.480;11.962;2022-11-04T06:14:35;8.37;;;4.77;;
13335;SDS011;6737;51.480;11.962;2022-11-04T06:17:02;8.47;;;4.90;;
13335;SDS011;6737;51.480;11.962;2022-11-04T06:19:28;7.40;;;5.00;;
13335;SDS011;6737;51.480;11.962;2022-11-04T06:21:54;7.50;;;4.60;;
13335;SDS011;6737;51.480;11.962;2022-11-04T06:24:21;8.17;;;4.90;;
13335;SDS011;6737;51.480;11.962;2022-11-04T06:26:47;7.70;;;4.70;;
13335;SDS011;6737;51.480;11.962;2022-11-04T06:29:12;7.07;;;4.50;;
13335;SDS011;6737;51.480;11.962;2022-11-04T06:31:38;5.77;;;4.13;;
13335;SDS011;6737;51.480;11.962;2022-11-04T06:34:04;7.90;;;3.97;;
13335;SDS011;6737;51.480;11.962;2022-11-04T06:36:30;6.83;;;4.57;;
13335;SDS011;6737;51.480;11.962;2022-11-04T06:38:55;6.37;;;4.13;;
13335;SDS011;6737;51.480;11.962;2022-11-04T06:41:21;6.73;;;4.40;;
13335;SDS011;6737;51.480;11.962;2022-11-04T06:43:47;7.20;;;4.97;;
13335;SDS011;6737;51.480;11.962;2022-11-04T06:46:34;8.23;;;4.60;;
13335;SDS011;6737;51.480;11.962;2022-11-04T06:49:03;6.23;;;4.27;;
13335;SDS011;6737;51.480;11.962;2022-11-04T06:51:31;6.53;;;4.57;;
13335;SDS011;6737;51.480;11.962;2022-11-04T06:53:57;6.87;;;4.90;;
13335;SDS011;6737;51.480;11.962;2022-11-04T06:56:23;7.20;;;4.97;;
13335;SDS011;6737;51.480;11.962;2022-11-04T06:58:52;6.07;;;4.33;;
13335;SDS011;6737;51.480;11.962;2022-11-04T07:01:19;7.63;;;4.67;;
13335;SDS011;6737;51.480;11.962;2022-11-04T07:03:53;6.90;;;4.57;;
13335;SDS011;6737;51.480;11.962;2022-11-04T07:06:21;7.27;;;4.37;;
13335;SDS011;6737;51.480;11.962;2022-11-04T07:08:48;6.97;;;4.30;;
13335;SDS011;6737;51.480;11.962;2022-11-04T07:11:15;5.60;;;4.23;;
13335;SDS011;6737;51.480;11.962;2022-11-04T07:13:44;5.17;;;4.10;;
13335;SDS011;6737;51.480;11.962;2022-11-04T07:16:11;7.23;;;3.97;;
13335;SDS011;6737;51.480;11.962;2022-11-04T07:18:37;5.80;;;4.13;;
13335;SDS011;6737;51.480;11.962;2022-11-04T07:21:03;6.47;;;4.50;;
13335;SDS011;6737;51.480;11.962;2022-11-04T07:23:29;7.43;;;4.13;;
13335;SDS011;6737;51.480;11.962;2022-11-04T07:26:02;6.10;;;4.50;;
13335;SDS011;6737;51.480;11.962;2022-11-04T07:28:29;5.17;;;3.80;;
13335;SDS011;6737;51.480;11.962;2022-11-04T07:30:55;6.33;;;4.07;;
13335;SDS011;6737;51.480;11.962;2022-11-04T07:33:26;5.87;;;3.80;;
13335;SDS011;6737;51.480;11.962;2022-11-04T07:35:52;6.73;;;4.33;;
13335;SDS011;6737;51.480;11.962;2022-11-04T07:38:19;5.73;;;4.30;;
13335;SDS011;6737;51.480;11.962;2022-11-04T07:40:46;6.70;;;3.93;;
13335;SDS011;6737;51.480;11.962;2022-11-04T07:43:13;5.50;;;4.10;;
13335;SDS011;6737;51.480;11.962;2022-11-04T07:45:39;5.73;;;4.00;;
13335;SDS011;6737;51.480;11.962;2022-11-04T07:48:05;4.77;;;3.53;;
13335;SDS011;6737;51.480;11.962;2022-11-04T07:50:31;7.50;;;3.50;;
13335;SDS011;6737;51.480;11.962;2022-11-04T07:52:58;5.67;;;3.50;;
13335;SDS011;6737;51.480;11.962;2022-11-04T07:55:24;6.10;;;3.23;;
13335;SDS011;6737;51.480;11.962;2022-11-04T07:57:50;4.50;;;3.30;;
13335;SDS011;6737;51.480;11.962;2022-11-04T08:00:18;4.50;;;3.10;;
13335;SDS011;6737;51.480;11.962;2022-11-04T08:02:44;5.73;;;3.17;;
13335;SDS011;6737;51.480;11.962;2022-11-04T08:05:14;5.43;;;3.00;;
13335;SDS011;6737;51.480;11.962;2022-11-04T08:07:40;5.00;;;3.13;;
13335;SDS011;6737;51.480;11.962;2022-11-04T08:10:06;6.23;;;3.20;;
13335;SDS011;6737;51.480;11.962;2022-11-04T08:12:34;3.50;;;2.60;;
13335;SDS011;6737;51.480;11.962;2022-11-04T08:15:02;4.20;;;2.57;;
13335;SDS011;6737;51.480;11.962;2022-11-04T08:17:29;4.83;;;2.93;;
13335;SDS011;6737;51.480;11.962;2022-11-04T08:19:55;4.70;;;2.90;;
13335;SDS011;6737;51.480;11.962;2022-11-04T08:22:20;5.40;;;3.00;;
13335;SDS011;6737;51.480;11.962;2022-11-04T08:24:46;3.80;;;2.80;;
13335;SDS011;6737;51.480;11.962;2022-11-04T08:27:12;4.50;;;3.00;;
13335;SDS011;6737;51.480;11.962;2022-11-04T08:29:38;5.33;;;3.00;;
13335;SDS011;6737;51.480;11.962;2022-11-04T08:32:06;5.27;;;2.97;;
13335;SDS011;6737;51.480;11.962;2022-11-04T08:34:32;4.67;;;2.90;;
13335;SDS011;6737;51.480;11.962;2022-11-04T08:36:58;3.80;;;2.67;;
13335;SDS011;6737;51.480;11.962;2022-11-04T08:39:24;3.60;;;2.57;;
13335;SDS011;6737;51.480;11.962;2022-11-04T08:41:50;4.43;;;2.87;;
13335;SDS011;6737;51.480;11.962;2022-11-04T08:44:18;4.47;;;3.00;;
13335;SDS011;6737;51.480;11.962;2022-11-04T08:46:45;3.40;;;3.00;;
13335;SDS011;6737;51.480;11.962;2022-11-04T08:49:11;4.60;;;3.20;;
13335;SDS011;6737;51.480;11.962;2022-11-04T08:51:38;4.73;;;3.17;;
13335;SDS011;6737;51.480;11.962;2022-11-04T08:54:06;4.73;;;3.23;;
13335;SDS011;6737;51.480;11.962;2022-11-04T08:56:36;5.90;;;3.30;;
13335;SDS011;6737;51.480;11.962;2022-11-04T08:59:03;4.03;;;2.83;;
13335;SDS011;6737;51.480;11.962;2022-11-04T09:01:33;5.27;;;2.83;;
13335;SDS011;6737;51.480;11.962;2022-11-04T09:04:00;4.63;;;2.90;;
13335;SDS011;6737;51.480;11.962;2022-11-04T09:06:28;4.63;;;3.07;;
13335;SDS011;6737;51.480;11.962;2022-11-04T09:08:56;5.40;;;2.90;;
13335;SDS011;6737;51.480;11.962;2022-11-04T09:11:28;4.77;;;2.77;;
13335;SDS011;6737;51.480;11.962;2022-11-04T09:13:57;4.10;;;3.00;;
13335;SDS011;6737;51.480;11.962;2022-11-04T09:16:25;3.93;;;3.03;;
13335;SDS011;6737;51.480;11.962;2022-11-04T09:18:52;4.30;;;3.00;;
13335;SDS011;6737;51.480;11.962;2022-11-04T09:21:17;4.20;;;3.13;;
13335;SDS011;6737;51.480;11.962;2022-11-04T09:23:43;2.77;;;2.40;;
13335;SDS011;6737;51.480;11.962;2022-11-04T09:26:11;4.00;;;2.70;;
13335;SDS011;6737;51.480;11.962;2022-11-04T09:28:39;4.60;;;2.43;;
13335;SDS011;6737;51.480;11.962;2022-11-04T09:31:10;3.80;;;2.50;;
13335;SDS011;6737;51.480;11.962;2022-11-04T09:33:41;3.60;;;2.40;;
13335;SDS011;6737;51.480;11.962;2022-11-04T09:36:07;3.43;;;2.07;;
13335;SDS011;6737;51.480;11.962;2022-11-04T09:38:38;3.20;;;2.00;;
13335;SDS011;6737;51.480;11.962;2022-11-04T09:41:10;2.87;;;2.10;;
13335;SDS011;6737;51.480;11.962;2022-11-04T09:43:59;2.67;;;1.90;;
13335;SDS011;6737;51.480;11.962;2022-11-04T09:46:48;3.33;;;2.20;;
13335;SDS011;6737;51.480;11.962;2022-11-04T09:49:16;2.33;;;1.70;;
13335;SDS011;6737;51.480;11.962;2022-11-04T09:51:43;3.83;;;1.93;;
13335;SDS011;6737;51.480;11.962;2022-11-04T09:54:17;3.50;;;2.00;;
13335;SDS011;6737;51.480;11.962;2022-11-04T09:57:17;2.63;;;1.93;;
13335;SDS011;6737;51.480;11.962;2022-11-04T09:59:44;2.83;;;2.00;;
13335;SDS011;6737;51.480;11.962;2022-11-04T10:13:12;2.30;;;1.80;;
13335;SDS011;6737;51.480;11.962;2022-11-04T10:21:05;1.90;;;1.70;;
13335;SDS011;6737;51.480;11.962;2022-11-04T10:26:45;2.40;;;1.80;;
13335;SDS011;6737;51.480;11.962;2022-11-04T10:29:22;2.87;;;1.50;;
13335;SDS011;6737;51.480;11.962;2022-11-04T10:32:02;1.97;;;1.50;;
13335;SDS011;6737;51.480;11.962;2022-11-04T10:37:26;1.70;;;1.40;;
13335;SDS011;6737;51.480;11.962;2022-11-04T10:39:55;1.53;;;1.40;;
13335;SDS011;6737;51.480;11.962;2022-11-04T10:42:30;3.37;;;1.80;;
13335;SDS011;6737;51.480;11.962;2022-11-04T10:44:56;2.40;;;1.63;;
13335;SDS011;6737;51.480;11.962;2022-11-04T10:50:23;1.90;;;1.67;;
13335;SDS011;6737;51.480;11.962;2022-11-04T10:53:22;1.70;;;1.50;;
13335;SDS011;6737;51.480;11.962;2022-11-04T10:58:23;1.53;;;1.40;;
13335;SDS011;6737;51.480;11.962;2022-11-04T11:00:55;1.50;;;1.37;;
13335;SDS011;6737;51.480;11.962;2022-11-04T11:03:29;1.33;;;1.23;;
13335;SDS011;6737;51.480;11.962;2022-11-04T11:08:57;3.00;;;1.30;;
13335;SDS011;6737;51.480;11.962;2022-11-04T11:11:47;3.30;;;1.10;;
13335;SDS011;6737;51.480;11.962;2022-11-04T11:14:16;1.77;;;1.40;;
13335;SDS011;6737;51.480;11.962;2022-11-04T11:16:43;1.77;;;1.27;;
13335;SDS011;6737;51.480;11.962;2022-11-04T11:21:49;2.00;;;1.37;;
13335;SDS011;6737;51.480;11.962;2022-11-04T11:26:54;2.17;;;1.40;;
13335;SDS011;6737;51.480;11.962;2022-11-04T11:29:26;1.73;;;1.20;;
13335;SDS011;6737;51.480;11.962;2022-11-04T11:31:55;2.17;;;1.60;;
13335;SDS011;6737;51.480;11.962;2022-11-04T11:34:25;2.37;;;1.50;;
13335;SDS011;6737;51.480;11.962;2022-11-04T11:36:56;1.77;;;1.30;;
13335;SDS011;6737;51.480;11.962;2022-11-04T11:39:24;1.93;;;1.30;;
13335;SDS011;6737;51.480;11.962;2022-11-04T11:41:55;1.70;;;1.47;;
13335;SDS011;6737;51.480;11.962;2022-11-04T11:46:57;1.77;;;1.30;;
13335;SDS011;6737;51.480;11.962;2022-11-04T11:49:31;2.30;;;1.30;;
13335;SDS011;6737;51.480;11.962;2022-11-04T11:52:35;1.43;;;1.20;;
13335;SDS011;6737;51.480;11.962;2022-11-04T11:54:53;1.43;;;1.30;;
13335;SDS011;6737;51.480;11.962;2022-11-04T12:00:00;1.70;;;1.17;;
13335;SDS011;6737;51.480;11.962;2022-11-04T12:02:45;2.70;;;1.20;;
13335;SDS011;6737;51.480;11.962;2022-11-04T12:05:26;1.60;;;1.13;;
13335;SDS011;6737;51.480;11.962;2022-11-04T12:08:22;2.07;;;1.30;;
13335;SDS011;6737;51.480;11.962;2022-11-04T12:14:17;1.40;;;1.20;;
13335;SDS011;6737;51.480;11.962;2022-11-04T12:17:03;2.73;;;1.10;;
13335;SDS011;6737;51.480;11.962;2022-11-04T12:22:39;1.30;;;1.20;;
13335;SDS011;6737;51.480;11.962;2022-11-04T12:25:50;2.07;;;1.13;;
13335;SDS011;6737;51.480;11.962;2022-11-04T12:33:51;1.23;;;1.00;;
13335;SDS011;6737;51.480;11.962;2022-11-04T12:44:31;4.43;;;1.20;;
13335;SDS011;6737;51.480;11.962;2022-11-04T12:47:28;3.10;;;1.00;;
13335;SDS011;6737;51.480;11.962;2022-11-04T13:01:55;2.93;;;1.30;;
13335;SDS011;6737;51.480;11.962;2022-11-04T13:04:29;4.43;;;1.00;;
13335;SDS011;6737;51.480;11.962;2022-11-04T13:07:02;3.53;;;1.07;;
13335;SDS011;6737;51.480;11.962;2022-11-04T13:09:39;1.60;;;1.10;;
13335;SDS011;6737;51.480;11.962;2022-11-04T13:14:51;1.80;;;1.30;;
13335;SDS011;6737;51.480;11.962;2022-11-04T13:17:25;1.90;;;1.40;;
13335;SDS011;6737;51.480;11.962;2022-11-04T13:20:12;3.13;;;1.20;;
13335;SDS011;6737;51.480;11.962;2022-11-04T13:22:52;1.63;;;1.00;;
13335;SDS011;6737;51.480;11.962;2022-11-04T13:25:28;1.87;;;1.30;;
13335;SDS011;6737;51.480;11.962;2022-11-04T13:27:59;3.77;;;1.53;;
13335;SDS011;6737;51.480;11.962;2022-11-04T13:35:41;2.63;;;1.17;;
13335;SDS011;6737;51.480;11.962;2022-11-04T13:38:15;1.97;;;1.20;;
13335;SDS011;6737;51.480;11.962;2022-11-04T13:43:40;1.60;;;1.13;;
13335;SDS011;6737;51.480;11.962;2022-11-04T13:46:20;1.70;;;1.07;;
13335;SDS011;6737;51.480;11.962;2022-11-04T13:49:33;1.93;;;1.10;;
13335;SDS011;6737;51.480;11.962;2022-11-04T13:51:43;2.50;;;1.13;;
13335;SDS011;6737;51.480;11.962;2022-11-04T13:57:08;2.30;;;1.10;;
13335;SDS011;6737;51.480;11.962;2022-11-04T13:59:36;2.30;;;1.20;;
13335;SDS011;6737;51.480;11.962;2022-11-04T14:04:43;2.93;;;1.00;;
13335;SDS011;6737;51.480;11.962;2022-11-04T14:07:11;1.60;;;1.10;;
13335;SDS011;6737;51.480;11.962;2022-11-04T14:14:49;3.07;;;1.37;;
13335;SDS011;6737;51.480;11.962;2022-11-04T14:27:50;4.83;;;1.23;;
13335;SDS011;6737;51.480;11.962;2022-11-04T14:30:31;3.60;;;1.10;;
13335;SDS011;6737;51.480;11.962;2022-11-04T14:36:22;2.43;;;1.20;;
13335;SDS011;6737;51.480;11.962;2022-11-04T14:46:47;2.90;;;1.30;;
13335;SDS011;6737;51.480;11.962;2022-11-04T14:52:05;1.63;;;1.17;;
13335;SDS011;6737;51.480;11.962;2022-11-04T14:54:44;4.00;;;1.20;;
13335;SDS011;6737;51.480;11.962;2022-11-04T14:57:13;3.53;;;1.30;;
13335;SDS011;6737;51.480;11.962;2022-11-04T14:59:42;2.37;;;1.10;;
13335;SDS011;6737;51.480;11.962;2022-11-04T15:02:18;5.23;;;1.30;;
13335;SDS011;6737;51.480;11.962;2022-11-04T15:04:48;4.30;;;1.40;;
13335;SDS011;6737;51.480;11.962;2022-11-04T15:10:18;3.50;;;1.10;;
13335;SDS011;6737;51.480;11.962;2022-11-04T15:12:50;1.50;;;1.13;;
13335;SDS011;6737;51.480;11.962;2022-11-04T15:18:16;2.30;;;1.20;;
13335;SDS011;6737;51.480;11.962;2022-11-04T15:20:48;2.43;;;1.40;;
13335;SDS011;6737;51.480;11.962;2022-11-04T15:23:26;3.33;;;1.20;;
13335;SDS011;6737;51.480;11.962;2022-11-04T15:25:59;2.07;;;1.20;;
13335;SDS011;6737;51.480;11.962;2022-11-04T15:28:31;2.37;;;1.03;;
13335;SDS011;6737;51.480;11.962;2022-11-04T15:33:39;3.80;;;1.33;;
13335;SDS011;6737;51.480;11.962;2022-11-04T15:36:15;2.03;;;1.20;;
13335;SDS011;6737;51.480;11.962;2022-11-04T15:38:53;3.70;;;1.33;;
13335;SDS011;6737;51.480;11.962;2022-11-04T15:41:30;2.57;;;1.53;;
13335;SDS011;6737;51.480;11.962;2022-11-04T15:44:20;2.13;;;1.20;;
13335;SDS011;6737;51.480;11.962;2022-11-04T15:46:50;5.10;;;1.50;;
13335;SDS011;6737;51.480;11.962;2022-11-04T15:49:30;5.30;;;1.20;;
13335;SDS011;6737;51.480;11.962;2022-11-04T15:52:00;2.53;;;1.33;;
13335;SDS011;6737;51.480;11.962;2022-11-04T15:54:33;3.63;;;1.40;;
13335;SDS011;6737;51.480;11.962;2022-11-04T15:57:03;2.17;;;1.57;;
13335;SDS011;6737;51.480;11.962;2022-11-04T16:02:34;2.33;;;1.17;;
13335;SDS011;6737;51.480;11.962;2022-11-04T16:07:36;5.23;;;2.13;;
13335;SDS011;6737;51.480;11.962;2022-11-04T16:10:19;3.23;;;1.73;;
13335;SDS011;6737;51.480;11.962;2022-11-04T16:12:58;2.33;;;1.73;;
13335;SDS011;6737;51.480;11.962;2022-11-04T16:20:51;3.37;;;1.90;;
13335;SDS011;6737;51.480;11.962;2022-11-04T16:23:20;5.23;;;2.10;;
13335;SDS011;6737;51.480;11.962;2022-11-04T16:25:54;4.43;;;2.00;;
13335;SDS011;6737;51.480;11.962;2022-11-04T16:28:33;8.00;;;2.40;;
13335;SDS011;6737;51.480;11.962;2022-11-04T16:31:03;4.07;;;2.30;;
13335;SDS011;6737;51.480;11.962;2022-11-04T16:33:48;3.40;;;2.10;;
13335;SDS011;6737;51.480;11.962;2022-11-04T16:36:15;3.40;;;2.00;;
13335;SDS011;6737;51.480;11.962;2022-11-04T16:38:54;4.57;;;2.17;;
13335;SDS011;6737;51.480;11.962;2022-11-04T16:41:23;2.70;;;2.00;;
13335;SDS011;6737;51.480;11.962;2022-11-04T16:43:51;3.30;;;2.10;;
13335;SDS011;6737;51.480;11.962;2022-11-04T16:46:17;2.70;;;2.10;;
13335;SDS011;6737;51.480;11.962;2022-11-04T16:48:43;2.23;;;2.00;;
13335;SDS011;6737;51.480;11.962;2022-11-04T16:53:43;4.57;;;2.30;;
13335;SDS011;6737;51.480;11.962;2022-11-04T16:56:13;4.17;;;2.37;;
13335;SDS011;6737;51.480;11.962;2022-11-04T16:58:40;3.03;;;2.07;;
13335;SDS011;6737;51.480;11.962;2022-11-04T17:01:06;3.40;;;2.20;;
13335;SDS011;6737;51.480;11.962;2022-11-04T17:03:39;3.27;;;2.00;;
13335;SDS011;6737;51.480;11.962;2022-11-04T17:06:07;3.07;;;1.73;;
13335;SDS011;6737;51.480;11.962;2022-11-04T17:08:34;2.90;;;2.00;;
13335;SDS011;6737;51.480;11.962;2022-11-04T17:11:00;1.87;;;1.50;;
13335;SDS011;6737;51.480;11.962;2022-11-04T17:13:26;2.27;;;1.60;;
13335;SDS011;6737;51.480;11.962;2022-11-04T17:15:52;4.27;;;1.60;;
13335;SDS011;6737;51.480;11.962;2022-11-04T17:18:18;4.70;;;1.70;;
13335;SDS011;6737;51.480;11.962;2022-11-04T17:20:47;3.40;;;1.60;;
13335;SDS011;6737;51.480;11.962;2022-11-04T17:23:18;3.63;;;1.63;;
13335;SDS011;6737;51.480;11.962;2022-11-04T17:25:46;2.07;;;1.70;;
13335;SDS011;6737;51.480;11.962;2022-11-04T17:28:12;3.00;;;1.97;;
13335;SDS011;6737;51.480;11.962;2022-11-04T17:30:38;3.63;;;2.10;;
13335;SDS011;6737;51.480;11.962;2022-11-04T17:33:05;3.90;;;1.90;;
13335;SDS011;6737;51.480;11.962;2022-11-04T17:35:37;3.40;;;1.90;;
13335;SDS011;6737;51.480;11.962;2022-11-04T17:38:04;4.53;;;2.17;;
13335;SDS011;6737;51.480;11.962;2022-11-04T17:40:30;3.17;;;2.00;;
13335;SDS011;6737;51.480;11.962;2022-11-04T17:42:56;3.07;;;2.13;;
13335;SDS011;6737;51.480;11.962;2022-11-04T17:45:41;3.03;;;2.07;;
13335;SDS011;6737;51.480;11.962;2022-11-04T17:48:07;4.50;;;2.17;;
13335;SDS011;6737;51.480;11.962;2022-11-04T17:50:36;3.03;;;1.97;;
13335;SDS011;6737;51.480;11.962;2022-11-04T17:53:03;3.73;;;1.80;;
13335;SDS011;6737;51.480;11.962;2022-11-04T17:55:29;4.20;;;1.80;;
13335;SDS011;6737;51.480;11.962;2022-11-04T17:57:55;3.07;;;1.77;;
13335;SDS011;6737;51.480;11.962;2022-11-04T18:00:21;2.70;;;1.87;;
13335;SDS011;6737;51.480;11.962;2022-11-04T18:02:53;4.27;;;1.93;;
13335;SDS011;6737;51.480;11.962;2022-11-04T18:05:19;3.57;;;2.03;;
13335;SDS011;6737;51.480;11.962;2022-11-04T18:07:45;2.27;;;1.70;;
13335;SDS011;6737;51.480;11.962;2022-11-04T18:10:11;4.13;;;1.63;;